Time;durP1;ratioP1;P1;durP2;ratioP2;P2;SDS_P1;SDS_P2;PMS_P1;PMS_P2;Temp;Humidity;BMP_temperature;BMP_pressure;BME280_temperature;BME280_humidity;BME280_pressure;Samples;Min_cycle;Max_cycle;Signal;HPM_P1;HPM_P2
2022/06/30 00:02:03;;;;;;;;;;;;;;;28.14;45.59;99420.03;4430209;32;20000;-83
2022/06/30 00:04:30;;;;;;;;;;;;;;;28.13;45.88;99415.69;4427824;32;19986;-85
2022/06/30 00:06:57;;;;;;;;;;;;;;;28.05;45.78;99415.34;4418390;32;19978;-83
2022/06/30 00:09:23;;;;;;;;;;;;;;;27.99;45.60;99415.72;4419795;32;19986;-89
2022/06/30 00:11:50;;;;;;;;;;;;;;;27.90;46.24;99421.59;4420484;32;19986;-91
2022/06/30 00:14:17;;;;;;;;;;;;;;;27.94;45.84;99417.78;4416564;32;20077;-90
2022/06/30 00:16:45;;;;;;;;;;;;;;;27.85;45.96;99423.69;4416017;32;19982;-94
2022/06/30 00:19:12;;;;;;;;;;;;;;;27.80;45.45;99427.50;4420573;32;19974;-93
2022/06/30 00:21:39;;;;;;;;;;;;;;;27.84;45.34;99429.97;4400605;32;19989;-85
2022/06/30 00:24:06;;;;;;;;;;;;;;;27.68;45.77;99430.00;4415045;32;20101;-83
2022/06/30 00:26:33;;;;;;;;;;;;;;;27.60;46.27;99427.84;4413382;32;19991;-86
2022/06/30 00:29:00;;;;;;;;;;;;;;;27.62;46.41;99436.56;4414916;32;19958;-82
2022/06/30 00:31:27;;;;;;;;;;;;;;;27.61;46.26;99432.19;4419414;32;19973;-85
2022/06/30 00:33:54;;;;;;;;;;;;;;;27.52;46.47;99432.75;4431654;32;20036;-84
2022/06/30 00:36:21;;;;;;;;;;;;;;;27.52;46.19;99432.75;4412941;32;19994;-85
2022/06/30 00:38:47;;;;;;;;;;;;;;;27.43;46.36;99434.16;4406643;32;19982;-91
2022/06/30 00:41:15;;;;;;;;;;;;;;;27.43;46.35;99425.31;4406828;32;19986;-87
2022/06/30 00:43:46;;;;;;;;;;;;;;;27.30;46.59;99439.34;4406908;32;19990;-85
2022/06/30 00:46:13;;;;;;;;;;;;;;;27.30;46.19;99428.72;4402593;32;19988;-90
2022/06/30 00:48:42;;;;;;;;;;;;;;;27.40;45.75;99433.47;4410142;32;19973;-95
2022/06/30 00:51:09;;;;;;;;;;;;;;;27.41;45.99;99427.22;4415147;32;19978;-90
2022/06/30 00:53:38;;;;;;;;;;;;;;;27.28;46.62;99425.31;4416268;32;20036;-88
2022/06/30 00:56:05;;;;;;;;;;;;;;;27.16;46.60;99420.72;4411887;32;20030;-87
2022/06/30 00:58:33;;;;;;;;;;;;;;;27.02;47.40;99424.13;4410647;32;20315;-88
2022/06/30 01:01:01;;;;;;;;;;;;;;;27.13;46.74;99420.88;4418561;32;20711;-91
2022/06/30 01:03:30;;;;;;;;;;;;;;;27.17;46.96;99419.75;4413046;32;19993;-93
2022/06/30 01:05:59;;;;;;;;;;;;;;;27.06;46.49;99419.53;4436349;32;19969;-82
2022/06/30 01:08:26;;;;;;;;;;;;;;;27.00;47.23;99419.88;4444639;32;20092;-81
2022/06/30 01:13:39;;;;;;;;;;;;;;;26.86;46.51;99416.19;4444326;32;19998;-81
2022/06/30 01:16:06;;;;;;;;;;;;;;;26.58;46.53;99424.91;4434977;32;19981;-80
2022/06/30 01:18:33;;;;;;;;;;;;;;;26.85;45.43;99411.84;4418255;32;20010;-81
2022/06/30 01:21:00;;;;;;;;;;;;;;;26.98;45.56;99411.12;4432159;32;19981;-81
2022/06/30 01:23:30;;;;;;;;;;;;;;;26.85;46.21;99421.63;4443754;32;19989;-81
2022/06/30 01:25:57;;;;;;;;;;;;;;;26.95;45.86;99412.16;4431789;32;20106;-82
2022/06/30 01:28:23;;;;;;;;;;;;;;;26.92;46.31;99422.09;4428695;32;20024;-82
2022/06/30 01:30:50;;;;;;;;;;;;;;;26.90;45.96;99415.09;4422399;32;19954;-84
2022/06/30 01:33:17;;;;;;;;;;;;;;;26.69;46.60;99424.28;4430245;32;19992;-91
2022/06/30 01:35:44;;;;;;;;;;;;;;;26.63;46.80;99421.97;4426706;32;20061;-96
2022/06/30 01:38:11;;;;;;;;;;;;;;;26.43;47.40;99428.38;4420871;32;19974;-89
2022/06/30 01:40:38;;;;;;;;;;;;;;;26.64;46.80;99429.87;4420672;32;20152;-92
2022/06/30 01:43:06;;;;;;;;;;;;;;;26.66;46.90;99421.81;4416862;32;19985;-89
2022/06/30 01:45:33;;;;;;;;;;;;;;;26.61;47.06;99419.44;4404862;32;19982;-93
2022/06/30 01:47:59;;;;;;;;;;;;;;;26.46;47.16;99432.69;4401037;32;20273;-90
2022/06/30 01:50:27;;;;;;;;;;;;;;;26.49;46.81;99424.56;4401068;32;20046;-91
2022/06/30 01:52:54;;;;;;;;;;;;;;;26.41;46.54;99436.41;4413436;32;20004;-88
2022/06/30 01:55:22;;;;;;;;;;;;;;;26.41;46.91;99438.22;4404848;32;19991;-93
2022/06/30 01:57:51;;;;;;;;;;;;;;;26.50;46.53;99431.59;4403739;32;19995;-94
2022/06/30 02:00:23;;;;;;;;;;;;;;;26.44;46.51;99438.91;4412253;32;20038;-91
2022/06/30 02:02:51;;;;;;;;;;;;;;;26.40;46.95;99442.69;4403429;32;20095;-93
2022/06/30 02:05:18;;;;;;;;;;;;;;;26.37;47.17;99442.84;4412422;32;20000;-93
2022/06/30 02:07:44;;;;;;;;;;;;;;;26.12;48.83;99442.47;4421804;32;19992;-94
2022/06/30 02:10:15;;;;;;;;;;;;;;;26.29;47.80;99449.50;4421273;32;19977;-83
2022/06/30 02:12:45;;;;;;;;;;;;;;;26.29;47.57;99447.75;4392484;32;20099;-94
2022/06/30 02:15:36;;;;;;;;;;;;;;;26.39;47.59;99443.63;4402738;32;20004;-94
2022/06/30 02:18:04;;;;;;;;;;;;;;;26.26;47.55;99445.25;4416960;32;20733;-89
2022/06/30 02:20:31;;;;;;;;;;;;;;;26.25;46.96;99443.53;4416736;32;19990;-89
2022/06/30 02:22:59;;;;;;;;;;;;;;;26.27;47.47;99446.09;4428577;32;20008;-86
2022/06/30 02:25:26;;;;;;;;;;;;;;;26.14;47.48;99445.91;4400772;32;20053;-88
2022/06/30 02:27:54;;;;;;;;;;;;;;;26.23;46.85;99442.78;4395265;32;19951;-91
2022/06/30 02:30:22;;;;;;;;;;;;;;;26.06;47.64;99448.12;4410508;32;20334;-87
2022/06/30 02:32:49;;;;;;;;;;;;;;;25.93;48.43;99443.47;4405576;32;19986;-87
2022/06/30 02:35:16;;;;;;;;;;;;;;;25.98;48.64;99443.25;4401714;32;19974;-89
2022/06/30 02:37:43;;;;;;;;;;;;;;;26.08;47.69;99452.41;4406051;32;19992;-93
2022/06/30 02:40:10;;;;;;;;;;;;;;;25.84;48.88;99453.72;4400658;32;20013;-89
2022/06/30 02:42:37;;;;;;;;;;;;;;;25.82;48.68;99456.47;4400486;32;20001;-89
2022/06/30 02:45:06;;;;;;;;;;;;;;;25.97;47.61;99439.72;4405563;32;20037;-88
2022/06/30 02:47:34;;;;;;;;;;;;;;;26.02;47.53;99441.28;4408231;32;19961;-83
2022/06/30 02:50:03;;;;;;;;;;;;;;;26.05;47.34;99441.97;4414554;32;19962;-86
2022/06/30 02:52:31;;;;;;;;;;;;;;;25.93;47.90;99448.78;4418902;32;19974;-84
2022/06/30 02:54:59;;;;;;;;;;;;;;;25.98;48.42;99445.88;4413485;32;20005;-87
2022/06/30 02:57:26;;;;;;;;;;;;;;;25.84;48.44;99443.94;4418420;32;19946;-95
2022/06/30 02:59:53;;;;;;;;;;;;;;;25.85;48.35;99440.38;4411717;32;20006;-87
2022/06/30 03:02:20;;;;;;;;;;;;;;;25.95;47.86;99441.59;4410397;32;19989;-96
2022/06/30 03:04:47;;;;;;;;;;;;;;;25.75;48.67;99444.44;4406880;32;19978;-93
2022/06/30 03:07:14;;;;;;;;;;;;;;;25.85;47.80;99443.03;4366260;32;20024;-95
2022/06/30 03:09:44;;;;;;;;;;;;;;;25.74;48.23;99448.00;4421158;32;20017;-88
2022/06/30 03:12:11;;;;;;;;;;;;;;;25.78;47.97;99448.69;4412046;32;19974;-93
2022/06/30 03:14:38;;;;;;;;;;;;;;;25.72;48.72;99449.91;4405298;32;20031;-94
2022/06/30 03:17:04;;;;;;;;;;;;;;;25.79;49.03;99463.69;4403144;32;20621;-94
2022/06/30 03:19:32;;;;;;;;;;;;;;;25.71;48.67;99464.06;4404662;32;20028;-86
2022/06/30 03:21:58;;;;;;;;;;;;;;;25.63;48.75;99461.84;4403109;32;19981;-92
2022/06/30 03:24:26;;;;;;;;;;;;;;;25.77;47.92;99470.84;4399971;32;19994;-95
2022/06/30 03:26:56;;;;;;;;;;;;;;;25.79;48.49;99472.50;4395387;32;19990;-95
2022/06/30 03:29:22;;;;;;;;;;;;;;;25.78;48.44;99473.41;4414342;32;20005;-94
2022/06/30 03:31:49;;;;;;;;;;;;;;;25.74;48.01;99477.16;4387561;32;20041;-94
2022/06/30 03:34:16;;;;;;;;;;;;;;;25.77;48.86;99478.81;4404824;32;19997;-85
2022/06/30 03:36:44;;;;;;;;;;;;;;;25.61;49.61;99478.75;4399595;32;19993;-93
2022/06/30 03:39:10;;;;;;;;;;;;;;;25.66;49.06;99476.72;4395609;32;19979;-93
2022/06/30 03:41:37;;;;;;;;;;;;;;;25.69;48.81;99476.56;4390124;32;19962;-86
2022/06/30 03:44:04;;;;;;;;;;;;;;;25.57;49.05;99477.19;4405502;32;19976;-86
2022/06/30 03:46:31;;;;;;;;;;;;;;;25.58;48.63;99478.91;4408670;32;19984;-91
2022/06/30 03:48:58;;;;;;;;;;;;;;;25.60;48.93;99487.66;4413066;32;19978;-96
2022/06/30 03:51:25;;;;;;;;;;;;;;;25.73;49.02;99484.28;4409150;32;20008;-90
2022/06/30 03:53:56;;;;;;;;;;;;;;;25.80;49.49;99491.91;4418012;32;20325;-87
2022/06/30 03:56:24;;;;;;;;;;;;;;;25.76;49.83;99491.22;4408996;32;20441;-92
2022/06/30 03:58:51;;;;;;;;;;;;;;;25.73;49.89;99494.03;4412739;32;20047;-92
2022/06/30 04:01:17;;;;;;;;;;;;;;;25.72;49.52;99497.63;4428919;32;19965;-86
2022/06/30 04:03:45;;;;;;;;;;;;;;;25.83;49.17;99489.13;4435583;32;19992;-84
2022/06/30 04:06:12;;;;;;;;;;;;;;;25.81;50.02;99491.84;4425345;32;19992;-95
2022/06/30 04:08:39;;;;;;;;;;;;;;;25.86;49.44;99500.44;4423723;32;19993;-93
2022/06/30 04:11:06;;;;;;;;;;;;;;;25.88;50.19;99493.25;4415224;32;19954;-96
2022/06/30 04:13:33;;;;;;;;;;;;;;;26.04;49.86;99505.69;4419530;32;19995;-95
2022/06/30 04:15:59;;;;;;;;;;;;;;;26.04;49.71;99508.34;4422633;32;19978;-91
2022/06/30 04:18:26;;;;;;;;;;;;;;;26.07;49.85;99497.56;4423758;32;20322;-96
2022/06/30 04:20:53;;;;;;;;;;;;;;;26.19;50.09;99494.25;4409252;32;20722;-91
2022/06/30 04:23:20;;;;;;;;;;;;;;;26.29;50.09;99494.62;4405085;32;19991;-87
2022/06/30 04:25:47;;;;;;;;;;;;;;;26.25;49.80;99491.28;4403953;32;19996;-89
2022/06/30 04:28:14;;;;;;;;;;;;;;;26.33;49.67;99493.53;4099500;32;10000429;-86
2022/06/30 04:33:27;;;;;;;;;;;;;;;26.39;50.21;99493.22;4410260;32;20327;-86
2022/06/30 04:35:56;;;;;;;;;;;;;;;26.32;49.86;99492.66;4415287;32;20003;-84
2022/06/30 04:38:31;;;;;;;;;;;;;;;26.50;49.69;99503.25;4412057;32;19978;-84
2022/06/30 04:43:44;;;;;;;;;;;;;;;26.51;50.22;99497.84;4400727;32;20023;-84
2022/06/30 04:46:11;;;;;;;;;;;;;;;26.58;48.94;99508.97;4399621;32;20311;-83
2022/06/30 04:48:38;;;;;;;;;;;;;;;26.56;49.04;99497.63;4399351;32;20707;-84
2022/06/30 04:51:07;;;;;;;;;;;;;;;26.64;48.29;99490.06;4386078;32;19990;-84
2022/06/30 04:53:40;;;;;;;;;;;;;;;26.73;48.17;99486.91;4408536;32;19977;-84
2022/06/30 04:56:07;;;;;;;;;;;;;;;26.79;48.74;99488.34;4412388;32;19994;-85
2022/06/30 04:58:35;;;;;;;;;;;;;;;26.86;48.54;99487.91;4401189;32;19992;-85
2022/06/30 05:01:02;;;;;;;;;;;;;;;26.92;47.50;99492.03;4400091;32;20341;-84
2022/06/30 05:03:29;;;;;;;;;;;;;;;26.98;47.47;99490.81;4400820;32;20438;-84
2022/06/30 05:05:56;;;;;;;;;;;;;;;27.11;47.22;99491.81;4393934;32;20017;-86
2022/06/30 05:08:23;;;;;;;;;;;;;;;27.14;47.67;99494.34;4400447;32;19990;-86
2022/06/30 05:10:50;;;;;;;;;;;;;;;27.16;47.33;99489.81;4397655;32;20028;-86
2022/06/30 05:13:23;;;;;;;;;;;;;;;27.16;46.44;99495.12;4406330;32;19999;-85
2022/06/30 05:15:50;;;;;;;;;;;;;;;27.21;46.38;99487.72;4401122;32;19978;-85
2022/06/30 05:18:17;;;;;;;;;;;;;;;27.30;46.21;99491.66;4401066;32;19979;-87
2022/06/30 05:20:43;;;;;;;;;;;;;;;27.34;46.04;99488.72;4399786;32;20026;-86
2022/06/30 05:23:11;;;;;;;;;;;;;;;27.49;45.57;99486.97;4412412;32;19994;-86
2022/06/30 05:28:23;;;;;;;;;;;;;;;27.54;45.84;99495.53;4403660;32;19995;-85
2022/06/30 05:30:50;;;;;;;;;;;;;;;27.63;45.39;99493.25;4399035;32;20859;-84
2022/06/30 05:33:21;;;;;;;;;;;;;;;27.77;45.02;99495.97;4387550;32;19993;-84
2022/06/30 05:35:49;;;;;;;;;;;;;;;27.89;45.13;99499.69;4406676;32;20001;-84
2022/06/30 05:38:16;;;;;;;;;;;;;;;27.86;45.45;99491.91;4397684;32;20343;-84
2022/06/30 05:40:45;;;;;;;;;;;;;;;27.99;45.49;99492.88;4391792;32;20001;-84
2022/06/30 05:43:13;;;;;;;;;;;;;;;28.07;45.81;99495.91;4398971;32;20271;-84
2022/06/30 05:45:41;;;;;;;;;;;;;;;28.05;44.92;99495.16;4399018;32;19993;-84
2022/06/30 05:48:08;;;;;;;;;;;;;;;28.12;44.82;99498.31;4401378;32;20037;-84
2022/06/30 05:50:35;;;;;;;;;;;;;;;28.11;43.39;99505.44;4399212;32;19993;-85
2022/06/30 05:53:01;;;;;;;;;;;;;;;28.19;42.19;99489.81;4391903;32;19986;-85
2022/06/30 05:55:28;;;;;;;;;;;;;;;28.29;41.91;99490.09;4391555;32;20037;-85
2022/06/30 05:58:03;;;;;;;;;;;;;;;28.29;41.23;99488.28;4403466;32;19982;-86
2022/06/30 06:00:31;;;;;;;;;;;;;;;28.21;41.09;99489.75;4399304;32;20038;-83
2022/06/30 06:02:58;;;;;;;;;;;;;;;28.42;40.43;99492.88;4386275;32;20048;-83
2022/06/30 06:05:25;;;;;;;;;;;;;;;28.49;40.17;99494.19;4392480;32;20039;-83
2022/06/30 06:07:52;;;;;;;;;;;;;;;28.66;38.10;99491.31;4392563;32;20020;-83
2022/06/30 06:10:21;;;;;;;;;;;;;;;28.70;39.43;99492.81;4403636;32;20002;-83
2022/06/30 06:12:48;;;;;;;;;;;;;;;28.85;39.08;99490.16;4373583;32;20030;-83
2022/06/30 06:15:15;;;;;;;;;;;;;;;29.23;38.86;99489.44;4405767;32;19990;-83
2022/06/30 06:17:46;;;;;;;;;;;;;;;29.48;37.70;99483.31;4408068;32;20065;-83
2022/06/30 06:20:13;;;;;;;;;;;;;;;29.92;36.45;99487.44;4406280;32;20046;-83
2022/06/30 06:22:40;;;;;;;;;;;;;;;30.11;34.43;99488.69;4407280;32;20090;-84
2022/06/30 06:25:08;;;;;;;;;;;;;;;30.43;35.35;99487.41;4411635;32;20324;-83
2022/06/30 06:27:35;;;;;;;;;;;;;;;30.76;34.93;99494.78;4404855;32;19978;-83
2022/06/30 06:30:03;;;;;;;;;;;;;;;31.15;33.68;99496.38;4399857;32;19978;-83
2022/06/30 06:32:30;;;;;;;;;;;;;;;31.54;30.84;99498.87;4419768;32;20052;-84
2022/06/30 06:34:57;;;;;;;;;;;;;;;31.66;29.30;99492.56;4417196;32;20316;-84
2022/06/30 06:37:24;;;;;;;;;;;;;;;31.69;30.05;99495.03;4414784;32;20803;-83
2022/06/30 06:39:51;;;;;;;;;;;;;;;32.05;29.35;99487.78;4417168;32;19994;-83
2022/06/30 06:42:18;;;;;;;;;;;;;;;32.09;28.37;99481.22;4414630;32;20023;-84
2022/06/30 06:44:51;;;;;;;;;;;;;;;32.11;28.45;99490.00;4428220;32;20002;-83
2022/06/30 06:47:19;;;;;;;;;;;;;;;32.52;27.56;99488.53;4414917;32;20020;-85
2022/06/30 06:49:46;;;;;;;;;;;;;;;32.71;27.93;99480.72;4410509;32;19993;-84
2022/06/30 06:52:13;;;;;;;;;;;;;;;33.01;27.22;99484.53;4421064;32;19982;-85
2022/06/30 06:54:40;;;;;;;;;;;;;;;32.92;26.81;99479.91;4416532;32;20005;-85
2022/06/30 06:57:07;;;;;;;;;;;;;;;33.22;25.85;99477.41;4416948;32;20643;-84
2022/06/30 06:59:34;;;;;;;;;;;;;;;33.47;26.30;99480.66;4396889;32;19997;-84
2022/06/30 07:02:01;;;;;;;;;;;;;;;33.70;25.26;99482.28;4416237;32;20023;-84
2022/06/30 07:04:28;;;;;;;;;;;;;;;33.52;26.44;99483.84;4416483;32;20069;-85
2022/06/30 07:06:55;;;;;;;;;;;;;;;33.66;26.73;99480.84;4415228;32;20023;-85
2022/06/30 07:09:22;;;;;;;;;;;;;;;33.75;26.62;99479.19;4409967;32;20410;-85
2022/06/30 07:11:49;;;;;;;;;;;;;;;33.80;27.87;99477.81;4406662;32;20599;-84
2022/06/30 07:14:16;;;;;;;;;;;;;;;33.96;28.72;99487.25;4416212;32;20052;-85
2022/06/30 07:16:44;;;;;;;;;;;;;;;34.23;24.86;99471.41;4415513;32;19985;-85
2022/06/30 07:19:11;;;;;;;;;;;;;;;34.54;26.16;99476.78;4419054;32;20040;-85
2022/06/30 07:21:42;;;;;;;;;;;;;;;34.58;27.27;99483.56;4412401;32;19990;-85
2022/06/30 07:24:09;;;;;;;;;;;;;;;34.68;25.67;99479.06;4422287;32;19989;-85
2022/06/30 07:26:36;;;;;;;;;;;;;;;34.88;24.12;99474.59;4418130;32;19977;-85
2022/06/30 07:29:03;;;;;;;;;;;;;;;34.88;23.77;99473.72;4417145;32;19992;-85
2022/06/30 07:31:33;;;;;;;;;;;;;;;35.23;23.94;99469.66;4415656;32;19974;-86
2022/06/30 07:34:00;;;;;;;;;;;;;;;35.31;24.41;99470.62;4412082;32;20041;-85
2022/06/30 07:36:27;;;;;;;;;;;;;;;35.25;24.75;99471.22;4433877;32;19998;-85
2022/06/30 07:38:55;;;;;;;;;;;;;;;35.16;24.68;99467.56;4416181;32;20286;-85
2022/06/30 07:41:23;;;;;;;;;;;;;;;35.50;25.22;99464.38;4412493;32;19993;-84
2022/06/30 07:43:50;;;;;;;;;;;;;;;36.02;25.29;99470.25;4421959;32;20036;-85
2022/06/30 07:46:17;;;;;;;;;;;;;;;36.22;22.92;99470.19;4416502;32;19973;-84
2022/06/30 07:48:44;;;;;;;;;;;;;;;35.92;22.85;99464.03;4416572;32;20037;-84
2022/06/30 07:51:11;;;;;;;;;;;;;;;35.99;21.51;99458.88;4416108;32;20000;-85
2022/06/30 07:53:38;;;;;;;;;;;;;;;35.57;23.10;99456.59;4425651;32;20289;-83
2022/06/30 07:56:05;;;;;;;;;;;;;;;35.67;24.12;99464.66;4414886;32;20796;-83
2022/06/30 07:58:33;;;;;;;;;;;;;;;36.00;23.78;99458.75;4420567;32;20369;-83
2022/06/30 08:01:00;;;;;;;;;;;;;;;36.22;22.96;99459.41;4415090;32;20410;-84
2022/06/30 08:03:28;;;;;;;;;;;;;;;36.52;22.58;99455.59;4414511;32;19995;-84
2022/06/30 08:05:55;;;;;;;;;;;;;;;36.29;22.57;99455.13;4401054;32;19982;-83
2022/06/30 08:08:21;;;;;;;;;;;;;;;36.67;22.39;99458.63;4401011;32;19990;-83
2022/06/30 08:10:49;;;;;;;;;;;;;;;36.33;22.64;99451.13;4400066;32;20012;-83
2022/06/30 08:13:15;;;;;;;;;;;;;;;36.85;21.45;99456.75;4403144;32;20469;-84
2022/06/30 08:15:43;;;;;;;;;;;;;;;36.77;22.88;99451.31;4422439;32;19978;-84
2022/06/30 08:18:10;;;;;;;;;;;;;;;36.84;22.33;99455.09;4394012;32;19986;-84
2022/06/30 08:20:37;;;;;;;;;;;;;;;36.74;24.22;99454.31;4417472;32;20005;-83
2022/06/30 08:23:04;;;;;;;;;;;;;;;36.74;22.68;99443.53;4418333;32;20007;-83
2022/06/30 08:25:31;;;;;;;;;;;;;;;37.22;23.27;99453.09;4416195;32;20635;-83
2022/06/30 08:27:58;;;;;;;;;;;;;;;36.86;21.71;99450.41;4414430;32;20061;-84
2022/06/30 08:30:24;;;;;;;;;;;;;;;37.06;22.37;99447.56;4417702;32;20033;-84
2022/06/30 08:32:51;;;;;;;;;;;;;;;36.72;23.73;99450.91;4420231;32;20328;-83
2022/06/30 08:35:18;;;;;;;;;;;;;;;37.45;22.22;99438.13;4416280;32;20029;-83
2022/06/30 08:38:05;;;;;;;;;;;;;;;37.74;21.90;99436.97;4414333;32;19986;-84
2022/06/30 08:43:19;;;;;;;;;;;;;;;37.68;23.05;99437.59;4416293;32;19982;-85
2022/06/30 08:45:45;;;;;;;;;;;;;;;37.70;23.37;99432.88;4416679;32;20049;-85
2022/06/30 08:48:12;;;;;;;;;;;;;;;37.76;21.60;99428.72;4413241;32;20036;-84
2022/06/30 08:50:40;;;;;;;;;;;;;;;37.68;21.00;99438.44;4421342;32;20031;-84
2022/06/30 08:53:12;;;;;;;;;;;;;;;37.97;20.10;99425.62;4414886;32;20052;-84
2022/06/30 08:55:39;;;;;;;;;;;;;;;38.29;19.84;99425.78;4414688;32;20021;-84
2022/06/30 08:58:07;;;;;;;;;;;;;;;38.16;20.45;99433.47;4413230;32;20037;-83
2022/06/30 09:00:35;;;;;;;;;;;;;;;38.04;22.51;99437.50;4406236;32;19994;-85
2022/06/30 09:03:02;;;;;;;;;;;;;;;37.88;19.10;99430.97;4404725;32;20004;-85
2022/06/30 09:05:29;;;;;;;;;;;;;;;38.19;19.55;99430.44;4420861;32;20034;-85
2022/06/30 09:07:56;;;;;;;;;;;;;;;37.90;20.79;99425.38;4417631;32;19982;-84
2022/06/30 09:10:51;;;;;;;;;;;;;;;37.70;20.87;99427.47;4415357;32;20334;-83
2022/06/30 09:13:17;;;;;;;;;;;;;;;37.95;20.19;99427.66;4421968;32;20745;-83
2022/06/30 09:15:45;;;;;;;;;;;;;;;38.01;19.53;99433.25;4415641;32;20023;-84
2022/06/30 09:18:25;;;;;;;;;;;;;;;37.69;21.52;99425.81;4417294;32;20823;-83
2022/06/30 09:20:52;;;;;;;;;;;;;;;37.87;20.96;99426.56;4416394;32;20532;-83
2022/06/30 09:23:26;;;;;;;;;;;;;;;38.18;19.75;99427.91;4415633;32;20024;-83
2022/06/30 09:25:54;;;;;;;;;;;;;;;38.09;18.98;99429.72;4416146;32;19982;-83
2022/06/30 09:28:41;;;;;;;;;;;;;;;38.03;20.17;99430.37;4414285;32;20068;-83
2022/06/30 09:31:31;;;;;;;;;;;;;;;38.21;19.37;99433.00;4410351;32;20040;-84
2022/06/30 09:34:02;;;;;;;;;;;;;;;37.99;19.09;99423.63;4399667;32;19993;-83
2022/06/30 09:36:29;;;;;;;;;;;;;;;38.44;20.18;99422.47;4416504;32;19970;-83
2022/06/30 09:39:02;;;;;;;;;;;;;;;38.29;18.20;99420.38;4414809;32;19986;-84
2022/06/30 09:41:30;;;;;;;;;;;;;;;38.14;20.10;99416.59;4415429;32;19982;-83
2022/06/30 09:43:57;;;;;;;;;;;;;;;38.35;18.55;99419.69;4414631;32;19996;-83
2022/06/30 09:46:24;;;;;;;;;;;;;;;38.29;18.29;99409.56;4415910;32;19992;-83
2022/06/30 09:48:51;;;;;;;;;;;;;;;38.47;18.05;99411.31;4415946;32;19985;-83
2022/06/30 09:51:18;;;;;;;;;;;;;;;38.73;18.25;99401.19;4414396;32;20020;-83
2022/06/30 09:54:05;;;;;;;;;;;;;;;38.64;18.00;99402.19;4396880;32;20899;-84
2022/06/30 09:56:32;;;;;;;;;;;;;;;39.01;18.05;99398.22;4418375;32;20335;-83
2022/06/30 09:58:59;;;;;;;;;;;;;;;38.79;21.50;99389.72;4417413;32;20008;-83
2022/06/30 10:01:26;;;;;;;;;;;;;;;38.69;21.21;99399.00;4422593;32;20552;-83
2022/06/30 10:04:00;;;;;;;;;;;;;;;38.65;18.62;99397.66;4415723;32;19992;-84
2022/06/30 10:06:27;;;;;;;;;;;;;;;38.30;17.74;99403.12;4421930;32;20040;-83
2022/06/30 10:08:55;;;;;;;;;;;;;;;38.01;18.17;99386.47;4417872;32;20001;-82
2022/06/30 10:11:23;;;;;;;;;;;;;;;38.24;18.98;99397.53;4416122;32;20098;-82
2022/06/30 10:13:49;;;;;;;;;;;;;;;38.71;19.11;99381.59;4434266;32;20346;-83
2022/06/30 10:16:17;;;;;;;;;;;;;;;38.87;19.08;99388.03;4414659;32;19990;-84
2022/06/30 10:18:44;;;;;;;;;;;;;;;38.53;18.85;99389.00;4413745;32;19996;-84
2022/06/30 10:21:11;;;;;;;;;;;;;;;38.82;18.02;99385.81;4404267;32;20389;-83
2022/06/30 10:23:38;;;;;;;;;;;;;;;38.77;17.74;99375.53;4417378;32;19982;-83
2022/06/30 10:26:06;;;;;;;;;;;;;;;38.62;18.16;99377.19;4419963;32;19988;-84
2022/06/30 10:28:33;;;;;;;;;;;;;;;38.31;18.66;99375.06;4418212;32;19977;-83
2022/06/30 10:31:08;;;;;;;;;;;;;;;38.35;18.45;99376.41;4426529;32;20448;-84
2022/06/30 10:33:41;;;;;;;;;;;;;;;38.33;19.23;99383.87;4403670;32;19974;-83
2022/06/30 10:36:16;;;;;;;;;;;;;;;38.46;19.73;99377.16;4385691;32;19974;-84
2022/06/30 10:39:04;;;;;;;;;;;;;;;38.89;17.91;99378.75;4405173;32;19990;-84
2022/06/30 10:41:31;;;;;;;;;;;;;;;38.95;17.12;99377.22;4398107;32;20017;-84
2022/06/30 10:44:04;;;;;;;;;;;;;;;39.24;15.66;99364.00;4400487;32;20017;-84
2022/06/30 10:46:32;;;;;;;;;;;;;;;38.79;17.97;99365.34;4413020;32;19990;-84
2022/06/30 10:48:59;;;;;;;;;;;;;;;38.62;18.07;99371.78;4407271;32;20005;-84
2022/06/30 10:51:26;;;;;;;;;;;;;;;38.64;17.24;99372.44;4380083;32;19990;-83
2022/06/30 10:53:56;;;;;;;;;;;;;;;38.87;17.35;99374.50;4400989;32;19983;-84
2022/06/30 10:56:25;;;;;;;;;;;;;;;38.71;16.92;99362.66;4416289;32;19978;-83
2022/06/30 10:59:21;;;;;;;;;;;;;;;38.60;16.74;99357.56;4427603;32;19993;-83
2022/06/30 11:02:12;;;;;;;;;;;;;;;38.66;16.07;99356.91;4406920;32;20400;-84
2022/06/30 11:04:40;;;;;;;;;;;;;;;38.43;16.57;99362.13;4404808;32;20009;-84
2022/06/30 11:07:14;;;;;;;;;;;;;;;38.50;16.40;99367.69;4401932;32;19982;-82
2022/06/30 11:09:44;;;;;;;;;;;;;;;38.72;15.83;99367.06;4420098;32;19985;-83
2022/06/30 11:12:11;;;;;;;;;;;;;;;38.74;15.93;99354.22;4388734;32;19994;-86
2022/06/30 11:14:48;;;;;;;;;;;;;;;38.45;17.14;99348.41;4407771;32;20399;-84
2022/06/30 11:17:16;;;;;;;;;;;;;;;38.95;15.18;99350.16;4408876;32;20020;-87
2022/06/30 11:19:42;;;;;;;;;;;;;;;38.89;16.19;99340.03;4400671;32;20005;-86
2022/06/30 11:22:12;;;;;;;;;;;;;;;38.67;17.38;99342.34;4400914;32;20069;-89
2022/06/30 11:24:40;;;;;;;;;;;;;;;38.30;16.43;99345.50;4413560;32;20035;-90
2022/06/30 11:27:17;;;;;;;;;;;;;;;38.67;15.53;99336.94;4420022;32;19993;-87
2022/06/30 11:29:45;;;;;;;;;;;;;;;39.13;15.42;99341.88;4411649;32;19986;-85
2022/06/30 11:32:16;;;;;;;;;;;;;;;38.80;17.53;99342.72;4400158;32;20004;-82
2022/06/30 11:34:45;;;;;;;;;;;;;;;38.85;18.11;99334.09;4397492;32;20045;-89
2022/06/30 11:37:21;;;;;;;;;;;;;;;38.49;17.41;99328.16;4392788;32;20108;-84
2022/06/30 11:39:55;;;;;;;;;;;;;;;38.53;18.44;99334.91;4417091;32;20024;-85
2022/06/30 11:42:22;;;;;;;;;;;;;;;38.80;16.85;99321.06;4442157;32;20444;-85
2022/06/30 11:44:49;;;;;;;;;;;;;;;38.78;15.75;99323.09;4430850;32;20405;-86
2022/06/30 11:47:17;;;;;;;;;;;;;;;38.91;15.10;99321.75;4438664;32;20394;-84
2022/06/30 11:49:45;;;;;;;;;;;;;;;38.69;15.52;99318.69;4424355;32;20005;-85
2022/06/30 11:52:13;;;;;;;;;;;;;;;38.98;14.72;99326.31;4442470;32;20362;-86
2022/06/30 11:54:46;;;;;;;;;;;;;;;39.08;14.37;99316.13;4391192;32;783288;-86
2022/06/30 11:57:14;;;;;;;;;;;;;;;38.94;14.66;99322.25;4420124;32;19975;-84
2022/06/30 11:59:44;;;;;;;;;;;;;;;38.82;15.31;99313.59;4401487;32;20037;-83
2022/06/30 12:02:11;;;;;;;;;;;;;;;38.78;15.24;99298.72;4400808;32;20085;-83
2022/06/30 12:04:41;;;;;;;;;;;;;;;38.95;16.66;99313.13;4405993;32;20032;-83
2022/06/30 12:07:12;;;;;;;;;;;;;;;38.70;14.95;99297.88;4406624;32;19986;-84
2022/06/30 12:09:39;;;;;;;;;;;;;;;38.57;16.38;99309.22;4409372;32;20398;-84
2022/06/30 12:12:08;;;;;;;;;;;;;;;38.88;14.64;99300.44;4401217;32;19981;-85
2022/06/30 12:14:42;;;;;;;;;;;;;;;39.01;15.42;99300.75;4401021;32;19997;-83
2022/06/30 12:17:10;;;;;;;;;;;;;;;39.28;13.96;99300.41;4401000;32;19974;-84
2022/06/30 12:19:37;;;;;;;;;;;;;;;39.10;14.28;99307.84;4399844;32;19998;-83
2022/06/30 12:22:04;;;;;;;;;;;;;;;39.01;14.90;99306.19;4411990;32;20005;-84
2022/06/30 12:24:33;;;;;;;;;;;;;;;39.03;15.27;99296.03;4414186;32;20385;-85
2022/06/30 12:27:00;;;;;;;;;;;;;;;39.12;15.21;99303.09;4404015;32;19986;-86
2022/06/30 12:29:28;;;;;;;;;;;;;;;39.47;15.05;99290.16;4431788;32;20531;-85
2022/06/30 12:32:06;;;;;;;;;;;;;;;39.25;15.18;99298.00;4424938;32;20008;-84
2022/06/30 12:34:47;;;;;;;;;;;;;;;39.49;14.32;99288.97;4419535;32;19973;-86
2022/06/30 12:37:14;;;;;;;;;;;;;;;39.63;13.75;99283.84;4415886;32;19974;-85
2022/06/30 12:39:44;;;;;;;;;;;;;;;39.23;14.88;99286.50;4407994;32;19982;-86
2022/06/30 12:42:11;;;;;;;;;;;;;;;39.50;14.79;99287.97;4414533;32;19993;-83
2022/06/30 12:44:38;;;;;;;;;;;;;;;39.34;15.03;99282.59;4414055;32;20060;-85
2022/06/30 12:47:06;;;;;;;;;;;;;;;39.51;15.97;99278.00;4430579;32;19994;-84
2022/06/30 12:49:33;;;;;;;;;;;;;;;39.48;15.58;99281.03;4415746;32;19974;-84
2022/06/30 12:52:01;;;;;;;;;;;;;;;39.47;15.68;99276.63;4427438;32;20460;-85
2022/06/30 12:54:28;;;;;;;;;;;;;;;39.29;15.57;99277.72;4427006;32;19990;-84
2022/06/30 12:57:02;;;;;;;;;;;;;;;39.09;16.20;99276.41;4416239;32;20363;-84
2022/06/30 12:59:29;;;;;;;;;;;;;;;39.36;15.67;99271.59;4425618;32;20346;-85
2022/06/30 13:01:57;;;;;;;;;;;;;;;39.35;16.00;99276.19;4418781;32;20037;-86
2022/06/30 13:04:25;;;;;;;;;;;;;;;39.18;16.85;99280.75;4422730;32;20032;-85
2022/06/30 13:06:53;;;;;;;;;;;;;;;39.18;16.68;99274.50;4412385;32;20371;-84